createdAt,value
2023-02-15T00:00:23.364Z,160.38
2023-02-15T00:00:55.857Z,173.99
2023-02-15T00:01:28.288Z,210.73
2023-02-15T00:02:00.806Z,203.17
2023-02-15T00:02:33.298Z,209.39
2023-02-15T00:03:05.787Z,210.00
2023-02-15T00:03:38.208Z,215.42
2023-02-15T00:04:10.679Z,204.58
2023-02-15T00:04:43.214Z,165.25
2023-02-15T00:05:15.653Z,75.00
2023-02-15T00:05:48.107Z,167.08
2023-02-15T00:06:20.557Z,226.87
2023-02-15T00:06:53.009Z,210.00
2023-02-15T00:07:25.461Z,227.16
2023-02-15T00:07:57.912Z,255.00
2023-02-15T00:08:30.438Z,252.62
2023-02-15T00:09:02.867Z,75.00
2023-02-15T00:09:35.393Z,75.00
2023-02-15T00:10:07.856Z,75.00
2023-02-15T00:10:40.316Z,75.00
2023-02-15T00:11:12.799Z,75.00
2023-02-15T00:11:45.268Z,75.00
2023-02-15T00:12:17.764Z,163.72
2023-02-15T00:12:50.208Z,199.55
2023-02-15T00:13:22.656Z,209.39
2023-02-15T00:13:55.104Z,210.00
2023-02-15T00:14:27.535Z,231.73
2023-02-15T00:14:59.999Z,209.39
2023-02-15T00:15:32.433Z,210.00
2023-02-15T00:16:04.895Z,209.39
2023-02-15T00:16:37.386Z,210.00
2023-02-15T00:17:09.812Z,199.93
2023-02-15T00:17:42.400Z,76.79
2023-02-15T00:18:14.830Z,75.00
2023-02-15T00:18:47.316Z,75.00
2023-02-15T00:19:19.852Z,75.00
2023-02-15T00:19:52.261Z,75.00
2023-02-15T00:20:24.706Z,97.16
2023-02-15T00:20:57.165Z,191.79
2023-02-15T00:21:29.659Z,207.08
2023-02-15T00:22:02.155Z,210.00
2023-02-15T00:22:34.716Z,210.00
2023-02-15T00:23:07.154Z,209.19
2023-02-15T00:23:39.627Z,210.00
2023-02-15T00:24:12.110Z,210.00
2023-02-15T00:24:44.559Z,209.39
2023-02-15T00:25:17.080Z,214.69
2023-02-15T00:25:49.532Z,300.00
2023-02-15T00:26:21.990Z,300.00
2023-02-15T00:26:54.467Z,29.62
2023-02-15T00:27:26.917Z,75.00
2023-02-15T00:27:59.378Z,80.19
2023-02-15T00:28:31.831Z,167.66
2023-02-15T00:29:04.260Z,171.88
2023-02-15T00:29:36.690Z,178.00
2023-02-15T00:30:09.194Z,210.00
2023-02-15T00:30:41.649Z,190.01
2023-02-15T00:31:14.092Z,210.40
2023-02-15T00:31:46.553Z,27.70
2023-02-15T00:32:18.973Z,85.83
2023-02-15T00:32:51.416Z,198.94
2023-02-15T00:33:23.838Z,35.99
2023-02-15T00:33:56.331Z,157.91
2023-02-15T00:34:28.835Z,177.97
2023-02-15T00:35:01.305Z,68.22
2023-02-15T00:35:33.719Z,52.05
2023-02-15T00:36:06.211Z,161.23
2023-02-15T00:36:38.684Z,75.00
2023-02-15T00:37:11.117Z,45.64
2023-02-15T00:37:43.597Z,30.00
2023-02-15T00:38:16.159Z,30.00
2023-02-15T00:38:48.648Z,49.18
2023-02-15T00:39:21.098Z,68.32
2023-02-15T00:39:53.598Z,75.00
2023-02-15T00:40:26.045Z,75.00
2023-02-15T00:40:58.567Z,204.85
2023-02-15T00:41:30.990Z,255.00
2023-02-15T00:42:03.473Z,255.00
2023-02-15T00:42:36.011Z,255.00
2023-02-15T00:43:08.545Z,255.00
2023-02-15T00:43:40.972Z,255.00
2023-02-15T00:44:13.507Z,255.00
2023-02-15T00:44:45.961Z,224.93
2023-02-15T00:45:18.424Z,210.00
2023-02-15T00:45:50.915Z,210.00
2023-02-15T00:46:23.361Z,210.00
2023-02-15T00:46:55.825Z,209.39
2023-02-15T00:47:28.290Z,112.14
2023-02-15T00:48:00.844Z,75.00
2023-02-15T00:48:33.333Z,75.00
2023-02-15T00:49:05.850Z,75.00
2023-02-15T00:49:38.371Z,140.75
2023-02-15T00:50:10.873Z,210.00
2023-02-15T00:50:43.342Z,209.39
2023-02-15T00:51:15.787Z,209.39
2023-02-15T00:51:48.266Z,210.00
2023-02-15T00:52:20.746Z,210.00
2023-02-15T00:52:53.214Z,210.00
2023-02-15T00:53:25.681Z,210.00
2023-02-15T00:53:58.113Z,208.77
2023-02-15T00:54:30.545Z,210.00
2023-02-15T00:55:02.963Z,206.15
2023-02-15T00:55:35.397Z,75.00
2023-02-15T00:56:07.893Z,75.00
2023-02-15T00:56:40.453Z,75.00
2023-02-15T00:57:12.894Z,150.34
2023-02-15T00:57:45.388Z,209.16
2023-02-15T00:58:17.844Z,210.00
2023-02-15T00:58:50.348Z,210.00
2023-02-15T00:59:22.852Z,210.00
2023-02-15T00:59:55.270Z,210.00
2023-02-15T01:00:27.698Z,202.53
2023-02-15T01:01:00.203Z,205.89
2023-02-15T01:01:32.613Z,196.31
2023-02-15T01:02:05.062Z,194.31
2023-02-15T01:02:37.473Z,229.01
2023-02-15T01:03:09.943Z,209.88
2023-02-15T01:03:42.429Z,210.00
2023-02-15T01:04:14.901Z,181.39
2023-02-15T01:04:47.328Z,208.07
2023-02-15T01:05:19.815Z,210.00
2023-02-15T01:05:52.285Z,75.50
2023-02-15T01:06:24.759Z,224.81
2023-02-15T01:06:57.219Z,210.00
2023-02-15T01:07:29.694Z,210.00
2023-02-15T01:08:02.169Z,210.00
2023-02-15T01:08:34.650Z,202.19
2023-02-15T01:09:07.118Z,190.28
2023-02-15T01:09:39.573Z,162.44
2023-02-15T01:10:12.016Z,30.00
2023-02-15T01:10:44.425Z,68.17
2023-02-15T01:11:16.897Z,75.00
2023-02-15T01:11:49.406Z,75.00
2023-02-15T01:12:21.848Z,249.08
2023-02-15T01:12:54.382Z,215.42
2023-02-15T01:13:26.858Z,209.39
2023-02-15T01:13:59.322Z,210.00
2023-02-15T01:14:31.827Z,209.88
2023-02-15T01:15:04.399Z,210.00
2023-02-15T01:15:36.771Z,210.00
2023-02-15T01:16:09.323Z,209.39
2023-02-15T01:16:41.691Z,205.02
2023-02-15T01:17:14.163Z,54.49
2023-02-15T01:17:46.754Z,243.83
2023-02-15T01:18:19.075Z,218.26
2023-02-15T01:18:51.550Z,210.00
2023-02-15T01:19:24.018Z,212.66
2023-02-15T01:19:56.507Z,209.39
2023-02-15T01:20:28.989Z,210.00
2023-02-15T01:21:01.545Z,209.39
2023-02-15T01:21:34.026Z,210.00
2023-02-15T01:22:06.549Z,210.00
2023-02-15T01:22:38.978Z,210.00
2023-02-15T01:23:11.427Z,210.00
2023-02-15T01:23:43.911Z,209.28
2023-02-15T01:24:16.341Z,173.30
2023-02-15T01:24:48.929Z,170.42
2023-02-15T01:25:21.399Z,173.26
2023-02-15T01:25:53.860Z,208.60
2023-02-15T01:26:26.308Z,210.00
2023-02-15T01:26:58.730Z,208.00
2023-02-15T01:27:31.197Z,209.39
2023-02-15T01:28:03.653Z,214.28
2023-02-15T01:28:36.127Z,210.00
2023-02-15T01:29:08.586Z,210.00
2023-02-15T01:29:41.061Z,210.00
2023-02-15T01:30:13.615Z,211.32
2023-02-15T01:30:46.088Z,180.43
2023-02-15T01:31:18.557Z,210.00
2023-02-15T01:31:51.078Z,210.00
2023-02-15T01:32:23.453Z,206.53
2023-02-15T01:32:55.921Z,168.96
2023-02-15T01:33:28.408Z,170.42
2023-02-15T01:34:00.897Z,169.03
2023-02-15T01:34:33.348Z,169.14
2023-02-15T01:35:05.822Z,185.24
2023-02-15T01:35:38.270Z,211.62
2023-02-15T01:36:10.746Z,196.72
2023-02-15T01:36:43.182Z,171.11
2023-02-15T01:37:15.631Z,180.65
2023-02-15T01:37:48.117Z,205.13
2023-02-15T01:38:20.579Z,210.00
2023-02-15T01:38:53.023Z,203.82
2023-02-15T01:39:25.525Z,249.58
2023-02-15T01:39:57.961Z,215.09
2023-02-15T01:40:30.414Z,201.58
2023-02-15T01:41:02.935Z,197.97
2023-02-15T01:41:35.513Z,169.03
2023-02-15T01:42:07.993Z,178.19
2023-02-15T01:42:40.485Z,255.90
2023-02-15T01:43:12.971Z,132.97
2023-02-15T01:43:45.438Z,75.00
2023-02-15T01:44:17.886Z,75.00
2023-02-15T01:44:50.355Z,152.47
2023-02-15T01:45:22.779Z,94.70
2023-02-15T01:45:55.351Z,110.78
2023-02-15T01:46:27.838Z,164.36
2023-02-15T01:47:00.240Z,39.82
2023-02-15T01:47:32.715Z,233.37
2023-02-15T01:48:05.280Z,255.00
2023-02-15T01:48:37.743Z,174.84
2023-02-15T01:49:10.179Z,125.56
2023-02-15T01:49:42.662Z,159.12
2023-02-15T01:50:15.153Z,248.15
2023-02-15T01:50:47.647Z,255.00
2023-02-15T01:51:20.054Z,255.00
2023-02-15T01:51:52.507Z,69.61
2023-02-15T01:52:24.976Z,77.05
2023-02-15T01:52:57.448Z,252.34
2023-02-15T01:53:29.895Z,220.48
2023-02-15T01:54:02.397Z,65.07
2023-02-15T01:54:34.842Z,206.64
2023-02-15T01:55:08.014Z,209.88
2023-02-15T01:55:39.829Z,209.88
2023-02-15T01:56:12.337Z,206.28
2023-02-15T01:56:44.834Z,120.04
2023-02-15T01:57:17.340Z,293.66
2023-02-15T01:57:49.863Z,268.36
2023-02-15T01:58:22.294Z,204.12
2023-02-15T01:58:54.780Z,341.61
2023-02-15T01:59:27.375Z,215.21
2023-02-15T01:59:59.873Z,179.35
2023-02-15T02:00:32.337Z,121.01
2023-02-15T02:01:04.877Z,71.36
2023-02-15T02:01:37.293Z,194.45
2023-02-15T02:02:09.730Z,170.57
2023-02-15T02:02:42.276Z,100.10
2023-02-15T02:03:14.743Z,100.30
2023-02-15T02:03:47.280Z,168.89
2023-02-15T02:04:19.774Z,43.37
2023-02-15T02:04:52.235Z,33.54
2023-02-15T02:05:24.766Z,162.53
2023-02-15T02:05:57.222Z,75.00
2023-02-15T02:06:29.682Z,75.00
2023-02-15T02:07:02.251Z,75.00
2023-02-15T02:07:34.664Z,199.96
2023-02-15T02:08:07.130Z,210.00
2023-02-15T02:08:39.597Z,197.35
2023-02-15T02:09:12.065Z,309.71
2023-02-15T02:09:44.556Z,336.52
2023-02-15T02:10:17.027Z,218.68
2023-02-15T02:10:49.649Z,317.81
2023-02-15T02:11:22.132Z,221.79
2023-02-15T02:11:54.599Z,205.31
2023-02-15T02:12:27.134Z,339.58
2023-02-15T02:12:59.666Z,186.70
2023-02-15T02:13:32.211Z,221.30
2023-02-15T02:14:04.684Z,200.91
2023-02-15T02:14:37.260Z,149.89
2023-02-15T02:15:09.704Z,40.07
2023-02-15T02:15:42.169Z,189.49
2023-02-15T02:16:14.663Z,26.64
2023-02-15T02:16:47.078Z,16.93
2023-02-15T02:17:19.633Z,261.20
2023-02-15T02:17:52.183Z,35.00
2023-02-15T02:18:24.642Z,30.00
2023-02-15T02:18:57.154Z,88.89
2023-02-15T02:19:29.632Z,168.74
2023-02-15T02:20:02.157Z,181.51
2023-02-15T02:20:34.678Z,246.27
2023-02-15T02:21:07.151Z,72.89
2023-02-15T02:21:39.618Z,69.14
2023-02-15T02:22:12.048Z,53.95
2023-02-15T02:22:44.564Z,44.60
2023-02-15T02:23:17.038Z,341.24
2023-02-15T02:23:49.523Z,1.70
2023-02-15T02:24:22.063Z,158.48
2023-02-15T02:24:54.554Z,207.19
2023-02-15T02:25:27.044Z,82.39
2023-02-15T02:25:59.915Z,177.24
2023-02-15T02:26:32.038Z,220.44
2023-02-15T02:27:04.505Z,179.15
2023-02-15T02:27:37.017Z,220.03
2023-02-15T02:28:09.520Z,214.78
2023-02-15T02:28:41.939Z,210.00
2023-02-15T02:29:14.385Z,204.55
2023-02-15T02:29:46.837Z,179.14
2023-02-15T02:30:19.324Z,214.88
2023-02-15T02:30:51.914Z,203.17
2023-02-15T02:31:24.500Z,217.11
2023-02-15T02:31:56.781Z,218.30
2023-02-15T02:32:29.213Z,255.00
2023-02-15T02:33:01.670Z,243.83
2023-02-15T02:33:34.156Z,194.86
2023-02-15T02:34:06.651Z,189.83
2023-02-15T02:34:39.098Z,210.00
2023-02-15T02:35:11.535Z,209.88
2023-02-15T02:35:43.999Z,221.95
2023-02-15T02:36:16.544Z,210.72
2023-02-15T02:36:49.006Z,210.00
2023-02-15T02:37:21.466Z,209.88
2023-02-15T02:37:53.935Z,210.00
2023-02-15T02:38:26.400Z,138.54
2023-02-15T02:38:58.935Z,229.03
2023-02-15T02:39:31.398Z,218.36
2023-02-15T02:40:03.887Z,212.53
2023-02-15T02:40:36.345Z,205.35
2023-02-15T02:41:08.816Z,208.68
2023-02-15T02:41:41.274Z,204.54
2023-02-15T02:42:13.748Z,210.00
2023-02-15T02:42:46.229Z,212.66
2023-02-15T02:43:18.696Z,211.32
2023-02-15T02:43:51.221Z,210.00
2023-02-15T02:44:23.657Z,212.61
2023-02-15T02:44:56.145Z,169.06
2023-02-15T02:45:28.634Z,210.00
2023-02-15T02:46:01.412Z,217.37
2023-02-15T02:46:33.695Z,14.07
2023-02-15T02:47:06.131Z,203.90
2023-02-15T02:47:38.596Z,201.74
2023-02-15T02:48:11.090Z,211.87
2023-02-15T02:48:43.592Z,183.15
2023-02-15T02:49:16.069Z,199.24
2023-02-15T02:49:48.601Z,203.71
2023-02-15T02:50:21.100Z,210.00
2023-02-15T02:50:53.576Z,210.00
2023-02-15T02:51:26.081Z,210.00
2023-02-15T02:51:58.521Z,200.35
2023-02-15T02:52:30.995Z,140.88
2023-02-15T02:53:03.487Z,164.71
2023-02-15T02:53:36.011Z,170.03
2023-02-15T02:54:08.486Z,208.57
2023-02-15T02:54:40.983Z,179.14
2023-02-15T02:55:13.520Z,169.03
2023-02-15T02:55:45.981Z,170.45
2023-02-15T02:56:18.463Z,211.50
2023-02-15T02:56:50.941Z,255.00
2023-02-15T02:57:23.469Z,255.00
2023-02-15T02:57:55.897Z,255.00
2023-02-15T02:58:28.442Z,232.61
2023-02-15T02:59:00.972Z,169.03
2023-02-15T02:59:33.443Z,110.29
2023-02-15T03:00:05.952Z,55.57
2023-02-15T03:00:38.425Z,72.34
2023-02-15T03:01:10.926Z,168.84
2023-02-15T03:01:43.468Z,187.88
2023-02-15T03:02:15.882Z,191.10
2023-02-15T03:02:48.378Z,199.57
2023-02-15T03:03:20.811Z,74.87
2023-02-15T03:03:53.266Z,212.98
2023-02-15T03:04:25.745Z,246.74
2023-02-15T03:04:58.217Z,71.47
2023-02-15T03:05:30.733Z,62.35
2023-02-15T03:06:03.475Z,252.09
2023-02-15T03:06:35.745Z,135.66
2023-02-15T03:07:08.232Z,8.49
2023-02-15T03:07:40.704Z,287.94
2023-02-15T03:08:13.179Z,271.63
2023-02-15T03:08:45.661Z,218.22
2023-02-15T03:09:18.104Z,259.39
2023-02-15T03:09:50.693Z,177.83
2023-02-15T03:10:23.219Z,264.36
2023-02-15T03:10:55.679Z,269.45
2023-02-15T03:11:28.174Z,240.56
2023-02-15T03:12:00.686Z,175.43
2023-02-15T03:12:33.139Z,220.68
2023-02-15T03:13:05.633Z,65.41
2023-02-15T03:13:38.083Z,185.35
2023-02-15T03:14:10.530Z,189.68
2023-02-15T03:14:43.026Z,204.66
2023-02-15T03:15:15.494Z,254.22
2023-02-15T03:15:48.006Z,205.60
2023-02-15T03:16:20.450Z,213.02
2023-02-15T03:16:52.903Z,204.33
2023-02-15T03:17:25.376Z,215.28
2023-02-15T03:17:57.929Z,205.90
2023-02-15T03:18:30.394Z,210.00
2023-02-15T03:19:02.844Z,201.74
2023-02-15T03:19:35.320Z,184.21
2023-02-15T03:20:07.774Z,187.00
2023-02-15T03:20:40.293Z,187.72
2023-02-15T03:21:12.739Z,213.47
2023-02-15T03:21:45.293Z,233.27
2023-02-15T03:22:17.777Z,214.03
2023-02-15T03:22:50.293Z,216.83
2023-02-15T03:23:22.784Z,219.03
2023-02-15T03:23:55.276Z,210.00
2023-02-15T03:24:27.826Z,233.27
2023-02-15T03:25:00.341Z,209.88
2023-02-15T03:25:32.866Z,209.17
2023-02-15T03:26:05.359Z,184.29
2023-02-15T03:26:37.884Z,203.20
2023-02-15T03:27:10.404Z,222.11
2023-02-15T03:27:42.901Z,232.97
2023-02-15T03:28:15.415Z,225.66
2023-02-15T03:28:47.926Z,220.33
2023-02-15T03:29:20.406Z,206.81
2023-02-15T03:29:52.952Z,213.41
2023-02-15T03:30:25.422Z,203.79
2023-02-15T03:30:57.951Z,207.08
2023-02-15T03:31:30.481Z,191.12
2023-02-15T03:32:02.980Z,234.56
2023-02-15T03:32:35.352Z,204.36
2023-02-15T03:33:07.878Z,219.03
2023-02-15T03:33:40.350Z,233.30
2023-02-15T03:34:12.906Z,198.75
2023-02-15T03:34:45.383Z,221.34
2023-02-15T03:35:17.842Z,205.00
2023-02-15T03:35:50.402Z,208.49
2023-02-15T03:36:22.872Z,210.00
2023-02-15T03:36:55.384Z,210.00
2023-02-15T03:37:27.837Z,212.06
2023-02-15T03:38:00.290Z,210.00
2023-02-15T03:38:32.764Z,216.18
2023-02-15T03:39:05.213Z,210.00
2023-02-15T03:39:37.684Z,210.00
2023-02-15T03:40:10.173Z,210.00
2023-02-15T03:40:42.648Z,210.00
2023-02-15T03:41:15.108Z,210.00
2023-02-15T03:41:47.578Z,210.00
2023-02-15T03:42:20.057Z,210.00
2023-02-15T03:42:52.555Z,210.00
2023-02-15T03:43:25.180Z,180.65
2023-02-15T03:43:57.838Z,167.70
2023-02-15T03:44:30.316Z,168.96
2023-02-15T03:45:02.779Z,173.32
2023-02-15T03:45:35.346Z,75.46
2023-02-15T03:46:07.826Z,75.00
2023-02-15T03:46:40.304Z,75.00
2023-02-15T03:47:12.733Z,75.00
2023-02-15T03:47:45.251Z,153.02
2023-02-15T03:48:17.755Z,134.95
2023-02-15T03:48:50.312Z,75.00
2023-02-15T03:49:22.739Z,75.00
2023-02-15T03:49:55.260Z,75.00
2023-02-15T03:50:27.732Z,75.00
2023-02-15T03:51:00.222Z,75.00
2023-02-15T03:51:32.723Z,75.00
2023-02-15T03:52:05.183Z,12.54
2023-02-15T03:52:37.652Z,328.51
2023-02-15T03:53:10.146Z,209.91
2023-02-15T03:53:42.591Z,203.47
2023-02-15T03:54:15.033Z,184.16
2023-02-15T03:54:47.525Z,74.62
2023-02-15T03:55:19.959Z,72.27
2023-02-15T03:55:52.434Z,203.16
2023-02-15T03:56:24.888Z,187.00
2023-02-15T03:56:57.358Z,187.00
2023-02-15T03:57:29.837Z,183.54
2023-02-15T03:58:02.295Z,176.99
2023-02-15T03:58:34.770Z,192.18
2023-02-15T03:59:07.228Z,231.08
2023-02-15T03:59:39.711Z,170.48
2023-02-15T04:00:12.171Z,168.99
2023-02-15T04:00:44.690Z,183.43
2023-02-15T04:01:17.145Z,196.69
2023-02-15T04:01:49.514Z,197.30
2023-02-15T04:02:22.029Z,188.52
2023-02-15T04:02:54.610Z,201.53
2023-02-15T04:03:27.090Z,202.92
2023-02-15T04:03:59.569Z,75.00
2023-02-15T04:04:32.051Z,75.00
2023-02-15T04:05:04.523Z,75.00
2023-02-15T04:05:37.020Z,75.00
2023-02-15T04:06:09.510Z,75.00
2023-02-15T04:06:41.953Z,75.00
2023-02-15T04:07:14.430Z,75.00
2023-02-15T04:07:46.907Z,75.00
2023-02-15T04:08:19.385Z,75.00
2023-02-15T04:08:51.885Z,75.00
2023-02-15T04:09:24.364Z,75.00
2023-02-15T04:09:56.883Z,57.31
2023-02-15T04:10:29.388Z,230.44
2023-02-15T04:11:01.856Z,210.00
2023-02-15T04:11:34.346Z,210.00
2023-02-15T04:12:06.810Z,210.00
2023-02-15T04:12:39.381Z,210.00
2023-02-15T04:13:11.842Z,210.00
2023-02-15T04:13:44.336Z,210.00
2023-02-15T04:14:16.852Z,210.00
2023-02-15T04:14:49.299Z,210.00
2023-02-15T04:15:21.754Z,210.00
2023-02-15T04:15:54.212Z,214.12
2023-02-15T04:16:26.737Z,187.00
2023-02-15T04:16:59.185Z,187.00
2023-02-15T04:17:31.650Z,201.13
2023-02-15T04:18:04.127Z,210.00
2023-02-15T04:18:36.584Z,210.00
2023-02-15T04:19:09.061Z,210.00
2023-02-15T04:19:41.486Z,210.00
2023-02-15T04:20:13.982Z,210.00
2023-02-15T04:20:46.466Z,210.00
2023-02-15T04:21:18.954Z,210.00
2023-02-15T04:21:51.404Z,210.00
2023-02-15T04:22:23.888Z,210.00
2023-02-15T04:22:56.381Z,210.00
2023-02-15T04:23:28.859Z,210.00
2023-02-15T04:24:01.311Z,75.00
2023-02-15T04:24:33.770Z,75.00
2023-02-15T04:25:06.209Z,75.00
2023-02-15T04:25:38.687Z,75.00
2023-02-15T04:26:11.198Z,75.00
2023-02-15T04:26:43.701Z,75.00
2023-02-15T04:27:17.744Z,75.00
2023-02-15T04:27:48.619Z,70.97
2023-02-15T04:28:21.070Z,30.00
2023-02-15T04:28:53.510Z,30.00
2023-02-15T04:29:25.989Z,30.00
2023-02-15T04:29:58.519Z,30.00
2023-02-15T04:30:30.980Z,30.00
2023-02-15T04:31:03.454Z,30.00
2023-02-15T04:31:35.988Z,30.00
2023-02-15T04:32:08.437Z,30.00
2023-02-15T04:32:40.837Z,30.00
2023-02-15T04:33:13.297Z,30.00
2023-02-15T04:33:45.732Z,30.00
2023-02-15T04:34:18.197Z,30.00
2023-02-15T04:34:50.663Z,30.00
2023-02-15T04:35:23.124Z,30.00
2023-02-15T04:35:55.615Z,30.00
2023-02-15T04:36:28.166Z,30.00
2023-02-15T04:37:00.646Z,30.00
2023-02-15T04:37:33.120Z,30.00
2023-02-15T04:38:05.662Z,30.00
2023-02-15T04:38:38.132Z,30.00
2023-02-15T04:39:10.619Z,30.00
2023-02-15T04:39:43.087Z,30.00
2023-02-15T04:40:17.314Z,30.00
2023-02-15T04:40:48.099Z,30.00
2023-02-15T04:41:20.607Z,30.00
2023-02-15T04:41:53.078Z,30.00
2023-02-15T04:42:25.531Z,30.00
2023-02-15T04:42:58.011Z,53.27
2023-02-15T04:43:30.518Z,75.00
2023-02-15T04:44:02.995Z,75.00
2023-02-15T04:44:35.463Z,75.00
2023-02-15T04:45:07.944Z,75.00
2023-02-15T04:45:40.426Z,75.00
2023-02-15T04:46:13.036Z,75.00
2023-02-15T04:46:45.504Z,75.00
2023-02-15T04:47:17.985Z,75.00
2023-02-15T04:47:50.535Z,75.00
2023-02-15T04:48:22.990Z,75.00
2023-02-15T04:48:55.477Z,75.00
2023-02-15T04:49:27.934Z,75.00
2023-02-15T04:50:00.451Z,75.00
2023-02-15T04:50:32.931Z,75.00
2023-02-15T04:51:05.391Z,75.00
2023-02-15T04:51:37.846Z,75.00
2023-02-15T04:52:10.308Z,75.00
2023-02-15T04:52:42.821Z,75.00
2023-02-15T04:53:15.291Z,75.00
2023-02-15T04:53:47.745Z,75.00
2023-02-15T04:54:20.243Z,75.00
2023-02-15T04:54:52.715Z,75.00
2023-02-15T04:55:25.142Z,75.00
2023-02-15T04:55:57.603Z,75.00
2023-02-15T04:56:30.147Z,75.00
2023-02-15T04:57:02.646Z,75.00
2023-02-15T04:57:35.104Z,75.00
2023-02-15T04:58:07.586Z,75.00
2023-02-15T04:58:40.042Z,75.00
2023-02-15T04:59:12.515Z,75.00
2023-02-15T04:59:44.965Z,75.00
2023-02-15T05:00:17.457Z,75.00
2023-02-15T05:00:50.017Z,75.00
2023-02-15T05:01:22.475Z,75.00
2023-02-15T05:01:54.917Z,75.00
2023-02-15T05:02:27.399Z,75.00
2023-02-15T05:02:59.869Z,75.00
2023-02-15T05:03:32.331Z,252.54
2023-02-15T05:04:04.831Z,255.00
2023-02-15T05:04:37.299Z,255.00
2023-02-15T05:05:09.724Z,255.00
2023-02-15T05:05:42.212Z,255.00
2023-02-15T05:06:14.685Z,255.00
2023-02-15T05:06:47.161Z,255.00
2023-02-15T05:07:19.612Z,255.00
2023-02-15T05:07:52.117Z,255.00
2023-02-15T05:08:24.600Z,68.57
2023-02-15T05:08:57.132Z,75.00
2023-02-15T05:09:29.559Z,75.00
2023-02-15T05:10:02.058Z,75.00
2023-02-15T05:10:34.520Z,75.00
2023-02-15T05:11:06.989Z,75.00
2023-02-15T05:11:39.452Z,75.00
2023-02-15T05:12:11.928Z,75.00
2023-02-15T05:12:44.457Z,75.00
2023-02-15T05:13:16.911Z,75.00
2023-02-15T05:13:49.379Z,75.00
2023-02-15T05:14:21.869Z,75.00
2023-02-15T05:14:54.330Z,75.00
2023-02-15T05:15:28.509Z,75.00
2023-02-15T05:16:08.237Z,75.00
2023-02-15T05:16:40.749Z,75.00
2023-02-15T05:17:13.142Z,75.00
2023-02-15T05:17:45.650Z,75.00
2023-02-15T05:18:18.151Z,75.00
2023-02-15T05:18:50.615Z,75.00
2023-02-15T05:19:23.102Z,75.00
2023-02-15T05:19:55.582Z,75.00
2023-02-15T05:20:28.049Z,75.00
2023-02-15T05:21:00.500Z,75.00
2023-02-15T05:21:32.971Z,75.00
2023-02-15T05:22:05.497Z,75.00
2023-02-15T05:22:38.004Z,75.00
2023-02-15T05:23:10.480Z,75.00
2023-02-15T05:23:42.969Z,75.00
2023-02-15T05:24:15.441Z,75.00
2023-02-15T05:24:47.930Z,75.00
2023-02-15T05:25:20.413Z,75.00
2023-02-15T05:25:52.945Z,75.00
2023-02-15T05:26:25.433Z,75.00
2023-02-15T05:26:57.919Z,75.00
2023-02-15T05:27:30.399Z,75.00
2023-02-15T05:28:05.108Z,75.00
2023-02-15T05:28:35.394Z,75.00
2023-02-15T05:29:07.895Z,75.00
2023-02-15T05:29:40.445Z,75.00
2023-02-15T05:30:13.129Z,75.00
2023-02-15T05:30:45.636Z,75.00
2023-02-15T05:31:18.162Z,75.00
2023-02-15T05:31:50.544Z,75.00
2023-02-15T05:32:22.927Z,75.00
2023-02-15T05:32:55.411Z,75.00
2023-02-15T05:33:27.877Z,75.00
2023-02-15T05:34:00.335Z,75.00
2023-02-15T05:34:32.842Z,75.00
2023-02-15T05:35:06.103Z,116.03
2023-02-15T05:35:38.629Z,209.88
2023-02-15T05:36:11.098Z,210.00
2023-02-15T05:36:43.580Z,210.00
2023-02-15T05:37:16.079Z,210.00
2023-02-15T05:37:48.589Z,210.00
2023-02-15T05:38:21.123Z,210.00
2023-02-15T05:38:53.633Z,210.00
2023-02-15T05:39:26.176Z,210.00
2023-02-15T05:39:58.638Z,210.00
2023-02-15T05:40:31.105Z,207.95
2023-02-15T05:41:03.604Z,75.00
2023-02-15T05:41:36.150Z,75.00
2023-02-15T05:42:08.612Z,75.00
2023-02-15T05:42:41.105Z,75.00
2023-02-15T05:43:13.588Z,75.00
2023-02-15T05:43:46.070Z,75.00
2023-02-15T05:44:18.636Z,171.16
2023-02-15T05:44:51.145Z,210.00
2023-02-15T05:45:23.671Z,203.60
2023-02-15T05:45:56.163Z,139.57
2023-02-15T05:46:28.695Z,75.00
2023-02-15T05:47:01.031Z,75.00
2023-02-15T05:47:33.515Z,75.00
2023-02-15T05:48:05.984Z,75.00
2023-02-15T05:48:38.452Z,75.00
2023-02-15T05:49:10.904Z,75.00
2023-02-15T05:49:43.406Z,75.00
2023-02-15T05:50:15.891Z,75.00
2023-02-15T05:50:48.348Z,136.59
2023-02-15T05:51:20.829Z,167.50
2023-02-15T05:51:53.302Z,171.88
2023-02-15T05:52:25.808Z,167.62
2023-02-15T05:52:58.311Z,168.96
2023-02-15T05:53:30.844Z,168.99
2023-02-15T05:54:03.303Z,171.85
2023-02-15T05:54:35.820Z,165.00
2023-02-15T05:55:08.275Z,169.03
2023-02-15T05:55:40.782Z,170.48
2023-02-15T05:56:13.311Z,171.77
2023-02-15T05:56:45.776Z,171.83
2023-02-15T05:57:18.289Z,164.90
2023-02-15T05:57:50.788Z,167.66
2023-02-15T05:58:23.297Z,170.45
2023-02-15T05:58:55.744Z,169.06
2023-02-15T05:59:28.196Z,170.45
2023-02-15T06:00:00.694Z,167.50
2023-02-15T06:00:33.206Z,169.03
2023-02-15T06:01:05.703Z,166.32
2023-02-15T06:01:38.261Z,165.00
2023-02-15T06:02:10.784Z,168.99
2023-02-15T06:02:43.423Z,167.58
2023-02-15T06:03:15.865Z,169.03
2023-02-15T06:03:48.349Z,171.85
2023-02-15T06:04:20.778Z,167.66
2023-02-15T06:04:53.254Z,167.58
2023-02-15T06:05:25.763Z,170.48
2023-02-15T06:05:58.237Z,169.06
2023-02-15T06:06:30.679Z,169.03
2023-02-15T06:07:03.171Z,168.99
2023-02-15T06:07:36.308Z,166.14
2023-02-15T06:08:08.763Z,171.88
2023-02-15T06:08:41.235Z,170.45
2023-02-15T06:09:13.733Z,170.42
2023-02-15T06:09:46.207Z,167.62
2023-02-15T06:10:18.748Z,169.06
2023-02-15T06:10:51.249Z,165.00
2023-02-15T06:11:23.722Z,170.45
2023-02-15T06:11:56.198Z,173.26
2023-02-15T06:12:28.683Z,169.06
2023-02-15T06:13:01.151Z,164.90
2023-02-15T06:13:34.891Z,167.66
2023-02-15T06:14:06.185Z,170.45
2023-02-15T06:14:38.686Z,171.83
2023-02-15T06:15:11.177Z,170.45
2023-02-15T06:15:43.714Z,170.45
2023-02-15T06:16:16.421Z,168.99
2023-02-15T06:16:48.906Z,171.85
2023-02-15T06:17:21.467Z,167.50
2023-02-15T06:17:53.956Z,169.06
2023-02-15T06:18:26.412Z,170.45
2023-02-15T06:18:58.958Z,170.45
2023-02-15T06:19:31.450Z,165.00
2023-02-15T06:20:03.914Z,169.10
2023-02-15T06:20:36.362Z,167.66
2023-02-15T06:21:08.850Z,170.35
2023-02-15T06:21:41.306Z,170.38
2023-02-15T06:22:13.842Z,169.03
2023-02-15T06:22:46.323Z,170.42
2023-02-15T06:23:18.799Z,167.58
2023-02-15T06:23:51.289Z,169.06
2023-02-15T06:24:23.761Z,171.88
2023-02-15T06:24:56.272Z,168.96
2023-02-15T06:25:28.771Z,210.00
2023-02-15T06:26:01.550Z,210.00
2023-02-15T06:26:33.773Z,205.31
2023-02-15T06:27:06.246Z,205.61
2023-02-15T06:27:38.732Z,1.50
2023-02-15T06:28:11.202Z,79.01
2023-02-15T06:28:43.665Z,243.83
2023-02-15T06:29:16.170Z,249.36
2023-02-15T06:29:48.701Z,217.37
2023-02-15T06:30:21.231Z,210.72
2023-02-15T06:30:53.750Z,210.00
2023-02-15T06:31:26.235Z,217.44
2023-02-15T06:31:58.669Z,255.00
2023-02-15T06:32:31.108Z,255.00
2023-02-15T06:33:03.625Z,255.00
2023-02-15T06:33:36.129Z,335.21
2023-02-15T06:34:08.612Z,290.26
2023-02-15T06:34:41.181Z,186.37
2023-02-15T06:35:13.657Z,203.82
2023-02-15T06:35:46.170Z,224.79
2023-02-15T06:36:18.662Z,212.66
2023-02-15T06:36:51.174Z,209.44
2023-02-15T06:37:23.669Z,207.87
2023-02-15T06:37:56.816Z,229.49
2023-02-15T06:38:29.328Z,229.77
2023-02-15T06:39:01.787Z,201.96
2023-02-15T06:39:34.287Z,201.25
2023-02-15T06:40:06.766Z,199.90
2023-02-15T06:40:39.273Z,202.27
2023-02-15T06:41:11.698Z,164.29
2023-02-15T06:41:44.152Z,220.63
2023-02-15T06:42:16.602Z,187.60
2023-02-15T06:42:49.109Z,296.33
2023-02-15T06:43:21.562Z,60.19
2023-02-15T06:43:54.023Z,56.50
2023-02-15T06:44:26.524Z,213.04
2023-02-15T06:44:59.013Z,117.61
2023-02-15T06:45:31.495Z,196.38
2023-02-15T06:46:04.230Z,132.41
2023-02-15T06:46:36.485Z,97.59
2023-02-15T06:47:08.908Z,322.98
2023-02-15T06:47:41.515Z,180.84
2023-02-15T06:48:13.999Z,200.37
2023-02-15T06:48:46.461Z,204.25
2023-02-15T06:49:18.926Z,308.26
2023-02-15T06:49:51.405Z,179.65